sensor_id;sensor_type;location;lat;lon;timestamp;temperature;humidity
53286;DHT22;39171;45.550;12.074;2022-12-18T00:03:35;15.30;65.00
53286;DHT22;39171;45.550;12.074;2022-12-18T00:09:37;15.30;65.00
53286;DHT22;39171;45.550;12.074;2022-12-18T00:15:39;15.30;65.30
53286;DHT22;39171;45.550;12.074;2022-12-18T00:21:41;15.30;65.10
53286;DHT22;39171;45.550;12.074;2022-12-18T00:27:43;15.20;65.50
53286;DHT22;39171;45.550;12.074;2022-12-18T00:33:45;15.20;65.30
53286;DHT22;39171;45.550;12.074;2022-12-18T00:39:48;15.20;65.20
53286;DHT22;39171;45.550;12.074;2022-12-18T00:45:50;15.20;65.10
53286;DHT22;39171;45.550;12.074;2022-12-18T00:51:51;15.20;65.20
53286;DHT22;39171;45.550;12.074;2022-12-18T00:57:52;15.10;65.00
53286;DHT22;39171;45.550;12.074;2022-12-18T01:03:54;15.10;65.10
53286;DHT22;39171;45.550;12.074;2022-12-18T01:09:55;15.10;65.10
53286;DHT22;39171;45.550;12.074;2022-12-18T01:15:56;15.00;65.20
53286;DHT22;39171;45.550;12.074;2022-12-18T01:21:58;15.00;65.40
53286;DHT22;39171;45.550;12.074;2022-12-18T01:27:59;15.00;65.80
53286;DHT22;39171;45.550;12.074;2022-12-18T01:34:01;14.90;65.70
53286;DHT22;39171;45.550;12.074;2022-12-18T01:40:03;14.90;66.00
53286;DHT22;39171;45.550;12.074;2022-12-18T01:46:05;14.90;66.00
53286;DHT22;39171;45.550;12.074;2022-12-18T01:52:06;14.90;66.40
53286;DHT22;39171;45.550;12.074;2022-12-18T01:58:08;14.90;66.30
53286;DHT22;39171;45.550;12.074;2022-12-18T02:04:35;14.80;65.90
53286;DHT22;39171;45.550;12.074;2022-12-18T02:17:01;14.80;65.90
53286;DHT22;39171;45.550;12.074;2022-12-18T02:29:22;14.70;66.10
53286;DHT22;39171;45.550;12.074;2022-12-18T02:35:29;14.70;66.30
53286;DHT22;39171;45.550;12.074;2022-12-18T02:41:34;14.70;66.10
53286;DHT22;39171;45.550;12.074;2022-12-18T02:47:42;14.70;66.00
53286;DHT22;39171;45.550;12.074;2022-12-18T02:53:53;14.60;66.10
53286;DHT22;39171;45.550;12.074;2022-12-18T03:06:21;14.60;66.40
53286;DHT22;39171;45.550;12.074;2022-12-18T03:12:31;14.60;66.70
53286;DHT22;39171;45.550;12.074;2022-12-18T03:18:42;14.50;66.30
53286;DHT22;39171;45.550;12.074;2022-12-18T03:24:48;14.50;66.70
53286;DHT22;39171;45.550;12.074;2022-12-18T03:30:55;14.50;66.70
53286;DHT22;39171;45.550;12.074;2022-12-18T03:36:58;14.40;66.50
53286;DHT22;39171;45.550;12.074;2022-12-18T03:43:10;14.40;66.40
53286;DHT22;39171;45.550;12.074;2022-12-18T03:55:22;14.40;66.50
53286;DHT22;39171;45.550;12.074;2022-12-18T04:01:34;14.40;66.30
53286;DHT22;39171;45.550;12.074;2022-12-18T04:07:37;14.30;66.30
53286;DHT22;39171;45.550;12.074;2022-12-18T04:13:42;14.30;66.40
53286;DHT22;39171;45.550;12.074;2022-12-18T04:19:50;14.30;66.30
53286;DHT22;39171;45.550;12.074;2022-12-18T04:25:52;14.30;66.50
53286;DHT22;39171;45.550;12.074;2022-12-18T04:32:08;14.20;66.60
53286;DHT22;39171;45.550;12.074;2022-12-18T04:38:15;14.20;66.30
53286;DHT22;39171;45.550;12.074;2022-12-18T04:44:18;14.20;66.60
53286;DHT22;39171;45.550;12.074;2022-12-18T04:50:20;14.20;66.40
53286;DHT22;39171;45.550;12.074;2022-12-18T04:56:22;14.20;66.40
53286;DHT22;39171;45.550;12.074;2022-12-18T05:02:23;14.10;66.50
53286;DHT22;39171;45.550;12.074;2022-12-18T05:08:25;14.20;66.40
53286;DHT22;39171;45.550;12.074;2022-12-18T05:14:26;14.10;66.50
53286;DHT22;39171;45.550;12.074;2022-12-18T05:20:30;14.10;66.70
53286;DHT22;39171;45.550;12.074;2022-12-18T05:26:31;14.00;66.70
53286;DHT22;39171;45.550;12.074;2022-12-18T05:32:33;14.00;66.80
53286;DHT22;39171;45.550;12.074;2022-12-18T05:38:37;14.00;66.60
53286;DHT22;39171;45.550;12.074;2022-12-18T05:44:39;13.90;67.00
53286;DHT22;39171;45.550;12.074;2022-12-18T05:50:43;13.90;66.80
53286;DHT22;39171;45.550;12.074;2022-12-18T05:56:46;13.90;67.00
53286;DHT22;39171;45.550;12.074;2022-12-18T06:02:48;13.90;66.80
53286;DHT22;39171;45.550;12.074;2022-12-18T06:08:51;13.80;66.90
53286;DHT22;39171;45.550;12.074;2022-12-18T06:14:53;13.80;67.40
53286;DHT22;39171;45.550;12.074;2022-12-18T06:20:55;13.80;67.00
53286;DHT22;39171;45.550;12.074;2022-12-18T06:26:57;13.80;67.10
53286;DHT22;39171;45.550;12.074;2022-12-18T06:32:58;13.70;67.20
53286;DHT22;39171;45.550;12.074;2022-12-18T06:39:00;13.70;67.30
53286;DHT22;39171;45.550;12.074;2022-12-18T06:45:01;13.70;67.40
53286;DHT22;39171;45.550;12.074;2022-12-18T06:51:02;13.70;67.90
53286;DHT22;39171;45.550;12.074;2022-12-18T06:57:04;13.70;67.60
53286;DHT22;39171;45.550;12.074;2022-12-18T07:03:05;13.70;67.60
53286;DHT22;39171;45.550;12.074;2022-12-18T07:09:06;13.70;67.60
53286;DHT22;39171;45.550;12.074;2022-12-18T07:15:08;13.60;67.90
53286;DHT22;39171;45.550;12.074;2022-12-18T07:21:14;13.60;67.70
53286;DHT22;39171;45.550;12.074;2022-12-18T07:27:16;13.60;67.70
53286;DHT22;39171;45.550;12.074;2022-12-18T07:33:17;13.60;67.90
53286;DHT22;39171;45.550;12.074;2022-12-18T07:39:18;13.50;67.70
53286;DHT22;39171;45.550;12.074;2022-12-18T07:45:20;13.50;67.80
53286;DHT22;39171;45.550;12.074;2022-12-18T07:51:21;13.50;67.60
53286;DHT22;39171;45.550;12.074;2022-12-18T07:57:22;13.50;67.80
53286;DHT22;39171;45.550;12.074;2022-12-18T08:03:24;13.50;67.80
53286;DHT22;39171;45.550;12.074;2022-12-18T08:09:25;13.50;67.60
53286;DHT22;39171;45.550;12.074;2022-12-18T08:15:26;13.50;67.90
53286;DHT22;39171;45.550;12.074;2022-12-18T08:21:29;13.40;68.30
53286;DHT22;39171;45.550;12.074;2022-12-18T08:27:31;13.50;67.90
53286;DHT22;39171;45.550;12.074;2022-12-18T08:33:33;13.40;67.80
53286;DHT22;39171;45.550;12.074;2022-12-18T08:39:34;13.50;67.70
53286;DHT22;39171;45.550;12.074;2022-12-18T08:45:36;13.40;68.10
53286;DHT22;39171;45.550;12.074;2022-12-18T08:51:38;13.40;67.80
53286;DHT22;39171;45.550;12.074;2022-12-18T08:57:40;13.40;67.80
53286;DHT22;39171;45.550;12.074;2022-12-18T09:03:41;13.50;67.80
53286;DHT22;39171;45.550;12.074;2022-12-18T09:09:42;13.40;68.00
53286;DHT22;39171;45.550;12.074;2022-12-18T09:15:54;13.40;68.40
53286;DHT22;39171;45.550;12.074;2022-12-18T09:21:56;13.40;68.30
53286;DHT22;39171;45.550;12.074;2022-12-18T09:27:57;13.40;68.10
53286;DHT22;39171;45.550;12.074;2022-12-18T09:33:59;13.40;68.20
53286;DHT22;39171;45.550;12.074;2022-12-18T09:40:00;13.40;68.10
53286;DHT22;39171;45.550;12.074;2022-12-18T09:46:06;13.40;68.00
53286;DHT22;39171;45.550;12.074;2022-12-18T09:58:34;13.40;68.60
53286;DHT22;39171;45.550;12.074;2022-12-18T10:04:37;13.40;68.60
53286;DHT22;39171;45.550;12.074;2022-12-18T10:10:52;13.40;68.30
53286;DHT22;39171;45.550;12.074;2022-12-18T10:23:40;13.40;68.10
53286;DHT22;39171;45.550;12.074;2022-12-18T10:29:45;13.40;68.00
53286;DHT22;39171;45.550;12.074;2022-12-18T10:35:49;13.40;68.00
53286;DHT22;39171;45.550;12.074;2022-12-18T10:42:18;13.40;68.10
53286;DHT22;39171;45.550;12.074;2022-12-18T10:48:22;13.40;68.00
53286;DHT22;39171;45.550;12.074;2022-12-18T10:54:24;13.40;68.00
53286;DHT22;39171;45.550;12.074;2022-12-18T11:00:28;13.40;68.10
53286;DHT22;39171;45.550;12.074;2022-12-18T11:06:30;13.40;67.90
53286;DHT22;39171;45.550;12.074;2022-12-18T11:12:31;13.40;67.90
53286;DHT22;39171;45.550;12.074;2022-12-18T11:18:34;13.40;67.90
53286;DHT22;39171;45.550;12.074;2022-12-18T11:24:37;13.40;67.80
53286;DHT22;39171;45.550;12.074;2022-12-18T11:30:43;13.40;67.90
53286;DHT22;39171;45.550;12.074;2022-12-18T11:36:46;13.40;67.80
53286;DHT22;39171;45.550;12.074;2022-12-18T11:43:11;13.40;67.90
53286;DHT22;39171;45.550;12.074;2022-12-18T11:56:05;13.30;67.70
53286;DHT22;39171;45.550;12.074;2022-12-18T12:15:25;13.40;68.00
53286;DHT22;39171;45.550;12.074;2022-12-18T12:21:40;13.40;67.90
53286;DHT22;39171;45.550;12.074;2022-12-18T12:34:30;13.40;67.90
53286;DHT22;39171;45.550;12.074;2022-12-18T12:40:43;13.40;67.70
53286;DHT22;39171;45.550;12.074;2022-12-18T12:46:46;13.40;67.40
53286;DHT22;39171;45.550;12.074;2022-12-18T12:52:53;13.40;67.50
53286;DHT22;39171;45.550;12.074;2022-12-18T12:59:16;13.30;67.50
53286;DHT22;39171;45.550;12.074;2022-12-18T13:05:48;13.40;67.60
53286;DHT22;39171;45.550;12.074;2022-12-18T13:11:51;13.40;67.60
53286;DHT22;39171;45.550;12.074;2022-12-18T13:18:14;13.30;67.70
53286;DHT22;39171;45.550;12.074;2022-12-18T13:24:28;13.30;67.70
53286;DHT22;39171;45.550;12.074;2022-12-18T13:36:33;13.30;67.90
53286;DHT22;39171;45.550;12.074;2022-12-18T13:42:38;13.30;67.80
53286;DHT22;39171;45.550;12.074;2022-12-18T13:55:23;13.30;67.90
53286;DHT22;39171;45.550;12.074;2022-12-18T14:01:24;13.40;67.80
53286;DHT22;39171;45.550;12.074;2022-12-18T14:07:28;13.30;67.90
53286;DHT22;39171;45.550;12.074;2022-12-18T14:13:37;13.30;67.90
53286;DHT22;39171;45.550;12.074;2022-12-18T14:19:48;13.30;67.90
53286;DHT22;39171;45.550;12.074;2022-12-18T14:25:50;13.30;67.80
53286;DHT22;39171;45.550;12.074;2022-12-18T14:32:05;13.30;68.00
53286;DHT22;39171;45.550;12.074;2022-12-18T14:44:15;13.30;67.80
53286;DHT22;39171;45.550;12.074;2022-12-18T14:50:16;13.30;67.80
53286;DHT22;39171;45.550;12.074;2022-12-18T14:56:23;13.20;67.80
53286;DHT22;39171;45.550;12.074;2022-12-18T15:02:27;13.20;67.80
53286;DHT22;39171;45.550;12.074;2022-12-18T15:08:35;13.20;67.80
53286;DHT22;39171;45.550;12.074;2022-12-18T15:14:40;13.20;67.80
53286;DHT22;39171;45.550;12.074;2022-12-18T15:26:55;13.20;67.80
53286;DHT22;39171;45.550;12.074;2022-12-18T15:33:16;13.20;67.90
53286;DHT22;39171;45.550;12.074;2022-12-18T15:39:26;13.20;67.80
53286;DHT22;39171;45.550;12.074;2022-12-18T15:45:29;13.20;67.80
53286;DHT22;39171;45.550;12.074;2022-12-18T15:51:35;13.20;67.80
53286;DHT22;39171;45.550;12.074;2022-12-18T15:57:37;13.20;67.90
53286;DHT22;39171;45.550;12.074;2022-12-18T16:03:38;13.10;67.80
53286;DHT22;39171;45.550;12.074;2022-12-18T16:09:42;13.10;67.90
53286;DHT22;39171;45.550;12.074;2022-12-18T16:15:44;13.10;68.00
53286;DHT22;39171;45.550;12.074;2022-12-18T16:21:46;13.10;68.00
53286;DHT22;39171;45.550;12.074;2022-12-18T16:27:50;13.10;68.00
53286;DHT22;39171;45.550;12.074;2022-12-18T16:40:17;13.00;68.20
53286;DHT22;39171;45.550;12.074;2022-12-18T16:46:19;13.00;68.20
53286;DHT22;39171;45.550;12.074;2022-12-18T16:52:20;13.00;68.30
53286;DHT22;39171;45.550;12.074;2022-12-18T16:58:22;13.00;68.40
53286;DHT22;39171;45.550;12.074;2022-12-18T17:04:23;13.00;68.40
53286;DHT22;39171;45.550;12.074;2022-12-18T17:10:25;12.90;68.40
53286;DHT22;39171;45.550;12.074;2022-12-18T17:16:27;12.90;68.30
53286;DHT22;39171;45.550;12.074;2022-12-18T17:22:28;12.90;68.40
53286;DHT22;39171;45.550;12.074;2022-12-18T17:28:30;12.90;68.50
53286;DHT22;39171;45.550;12.074;2022-12-18T17:34:34;12.80;68.50
53286;DHT22;39171;45.550;12.074;2022-12-18T17:40:36;12.80;68.60
53286;DHT22;39171;45.550;12.074;2022-12-18T17:46:38;12.80;68.60
53286;DHT22;39171;45.550;12.074;2022-12-18T17:52:39;12.80;68.60
53286;DHT22;39171;45.550;12.074;2022-12-18T17:58:41;12.80;68.60
53286;DHT22;39171;45.550;12.074;2022-12-18T18:04:43;12.70;68.60
53286;DHT22;39171;45.550;12.074;2022-12-18T18:10:44;12.80;68.60
53286;DHT22;39171;45.550;12.074;2022-12-18T18:16:50;12.70;68.60
53286;DHT22;39171;45.550;12.074;2022-12-18T18:22:52;12.70;68.70
53286;DHT22;39171;45.550;12.074;2022-12-18T18:28:53;12.70;68.70
53286;DHT22;39171;45.550;12.074;2022-12-18T18:34:55;12.70;68.80
53286;DHT22;39171;45.550;12.074;2022-12-18T18:41:00;12.70;68.80
53286;DHT22;39171;45.550;12.074;2022-12-18T18:47:07;12.70;68.80
53286;DHT22;39171;45.550;12.074;2022-12-18T18:53:14;12.70;68.80
53286;DHT22;39171;45.550;12.074;2022-12-18T18:59:15;12.60;68.90
53286;DHT22;39171;45.550;12.074;2022-12-18T19:05:22;12.60;68.80
53286;DHT22;39171;45.550;12.074;2022-12-18T19:11:24;12.60;68.90
53286;DHT22;39171;45.550;12.074;2022-12-18T19:17:44;12.60;69.00
53286;DHT22;39171;45.550;12.074;2022-12-18T19:23:46;12.50;69.00
53286;DHT22;39171;45.550;12.074;2022-12-18T19:29:48;12.50;69.00
53286;DHT22;39171;45.550;12.074;2022-12-18T19:35:51;12.50;69.10
53286;DHT22;39171;45.550;12.074;2022-12-18T19:41:55;12.50;69.00
53286;DHT22;39171;45.550;12.074;2022-12-18T19:47:56;12.40;69.20
53286;DHT22;39171;45.550;12.074;2022-12-18T19:53:59;12.40;69.20
53286;DHT22;39171;45.550;12.074;2022-12-18T20:00:00;12.40;69.30
53286;DHT22;39171;45.550;12.074;2022-12-18T20:06:31;12.40;69.10
53286;DHT22;39171;45.550;12.074;2022-12-18T20:12:34;12.40;69.30
53286;DHT22;39171;45.550;12.074;2022-12-18T20:18:35;12.30;69.30
53286;DHT22;39171;45.550;12.074;2022-12-18T20:24:37;12.30;69.40
53286;DHT22;39171;45.550;12.074;2022-12-18T20:30:38;12.30;69.30
53286;DHT22;39171;45.550;12.074;2022-12-18T20:36:39;12.30;69.30
53286;DHT22;39171;45.550;12.074;2022-12-18T20:42:46;12.30;69.30
53286;DHT22;39171;45.550;12.074;2022-12-18T20:48:47;12.20;69.30
53286;DHT22;39171;45.550;12.074;2022-12-18T20:54:52;12.20;69.30
53286;DHT22;39171;45.550;12.074;2022-12-18T21:01:08;12.20;69.50
53286;DHT22;39171;45.550;12.074;2022-12-18T21:07:10;12.20;69.60
53286;DHT22;39171;45.550;12.074;2022-12-18T21:13:12;12.20;69.60
53286;DHT22;39171;45.550;12.074;2022-12-18T21:19:19;12.20;69.60
53286;DHT22;39171;45.550;12.074;2022-12-18T21:25:30;12.20;69.60
53286;DHT22;39171;45.550;12.074;2022-12-18T21:31:35;12.10;69.70
53286;DHT22;39171;45.550;12.074;2022-12-18T21:37:36;12.10;69.70
53286;DHT22;39171;45.550;12.074;2022-12-18T21:43:38;12.10;69.60
53286;DHT22;39171;45.550;12.074;2022-12-18T21:49:58;12.10;69.70
53286;DHT22;39171;45.550;12.074;2022-12-18T21:56:00;12.00;69.60
53286;DHT22;39171;45.550;12.074;2022-12-18T22:02:07;12.00;69.70
53286;DHT22;39171;45.550;12.074;2022-12-18T22:08:10;12.00;69.60
53286;DHT22;39171;45.550;12.074;2022-12-18T22:14:12;12.00;69.70
53286;DHT22;39171;45.550;12.074;2022-12-18T22:20:14;12.00;69.70
53286;DHT22;39171;45.550;12.074;2022-12-18T22:26:20;12.00;69.80
53286;DHT22;39171;45.550;12.074;2022-12-18T22:32:22;11.90;70.10
53286;DHT22;39171;45.550;12.074;2022-12-18T22:38:23;11.90;69.80
53286;DHT22;39171;45.550;12.074;2022-12-18T22:44:25;11.90;69.90
53286;DHT22;39171;45.550;12.074;2022-12-18T22:50:27;11.80;69.70
53286;DHT22;39171;45.550;12.074;2022-12-18T22:56:31;11.80;69.80
53286;DHT22;39171;45.550;12.074;2022-12-18T23:02:32;11.80;69.90
53286;DHT22;39171;45.550;12.074;2022-12-18T23:08:34;11.80;69.90
53286;DHT22;39171;45.550;12.074;2022-12-18T23:14:36;11.80;69.90
53286;DHT22;39171;45.550;12.074;2022-12-18T23:20:37;11.80;70.20
53286;DHT22;39171;45.550;12.074;2022-12-18T23:26:39;11.70;69.80
53286;DHT22;39171;45.550;12.074;2022-12-18T23:32:40;11.70;69.90
53286;DHT22;39171;45.550;12.074;2022-12-18T23:38:46;11.70;69.90
53286;DHT22;39171;45.550;12.074;2022-12-18T23:44:47;11.70;69.90
53286;DHT22;39171;45.550;12.074;2022-12-18T23:50:48;11.70;70.00
53286;DHT22;39171;45.550;12.074;2022-12-18T23:56:50;11.70;70.00
